createdAt,value
2019-02-22T00:01:43.953Z,11.50
2019-02-22T00:04:13.540Z,12.00
2019-02-22T00:06:43.041Z,11.37
2019-02-22T00:09:12.536Z,11.73
2019-02-22T00:11:42.064Z,11.63
2019-02-22T00:14:11.973Z,11.83
2019-02-22T00:16:41.477Z,12.20
2019-02-22T00:19:10.984Z,11.67
2019-02-22T00:21:40.490Z,12.60
2019-02-22T00:24:10.053Z,15.60
2019-02-22T00:26:39.562Z,14.77
2019-02-22T00:29:09.020Z,14.10
2019-02-22T00:31:38.503Z,14.23
2019-02-22T00:34:08.030Z,15.33
2019-02-22T00:36:37.560Z,14.00
2019-02-22T00:39:07.317Z,14.10
2019-02-22T00:41:36.829Z,14.63
2019-02-22T00:44:06.362Z,13.33
2019-02-22T00:46:35.871Z,12.93
2019-02-22T00:49:05.366Z,12.90
2019-02-22T00:51:34.814Z,13.23
2019-02-22T00:54:04.290Z,12.57
2019-02-22T00:56:33.790Z,12.53
2019-02-22T00:59:03.296Z,14.17
2019-02-22T01:01:32.794Z,23.63
2019-02-22T01:04:02.314Z,21.53
2019-02-22T01:06:31.788Z,17.30
2019-02-22T01:09:01.303Z,13.80
2019-02-22T01:11:30.807Z,14.23
2019-02-22T01:14:00.302Z,13.77
2019-02-22T01:16:29.807Z,13.77
2019-02-22T01:18:59.305Z,13.63
2019-02-22T01:21:28.774Z,12.60
2019-02-22T01:23:58.315Z,13.40
2019-02-22T01:26:27.808Z,12.47
2019-02-22T01:28:57.249Z,16.57
2019-02-22T01:31:26.750Z,20.37
2019-02-22T01:33:56.233Z,21.27
2019-02-22T01:36:25.721Z,22.23
2019-02-22T01:38:55.227Z,19.47
2019-02-22T01:41:24.722Z,20.10
2019-02-22T01:43:54.200Z,18.93
2019-02-22T01:46:23.718Z,20.30
2019-02-22T01:48:53.600Z,19.57
2019-02-22T01:51:23.104Z,20.30
2019-02-22T01:53:54.061Z,19.20
2019-02-22T01:56:23.722Z,17.37
2019-02-22T01:58:53.208Z,18.53
2019-02-22T02:01:22.747Z,19.63
2019-02-22T02:03:52.333Z,19.60
2019-02-22T02:06:21.861Z,19.23
2019-02-22T02:08:51.401Z,19.87
2019-02-22T02:11:20.949Z,21.47
2019-02-22T02:13:58.681Z,22.90
2019-02-22T02:16:32.539Z,22.47
2019-02-22T02:19:10.146Z,21.67
2019-02-22T02:21:46.010Z,22.57
2019-02-22T02:24:19.365Z,20.30
2019-02-22T02:26:49.826Z,18.53
2019-02-22T02:29:22.204Z,20.00
2019-02-22T02:31:51.726Z,16.93
2019-02-22T02:34:21.800Z,17.10
2019-02-22T02:36:56.031Z,17.00
2019-02-22T02:39:30.637Z,21.63
2019-02-22T02:42:03.534Z,21.43
2019-02-22T02:44:34.763Z,23.13
2019-02-22T02:47:16.162Z,22.67
2019-02-22T02:49:47.094Z,20.50
2019-02-22T02:52:17.315Z,22.20
2019-02-22T02:54:46.810Z,22.63
2019-02-22T02:57:17.455Z,21.03
2019-02-22T02:59:56.935Z,22.27
2019-02-22T03:02:30.588Z,20.83
2019-02-22T03:05:00.417Z,22.50
2019-02-22T03:07:45.755Z,22.90
2019-02-22T03:10:19.567Z,23.90
2019-02-22T03:12:52.652Z,22.23
2019-02-22T03:15:24.160Z,23.37
2019-02-22T03:17:58.727Z,24.97
2019-02-22T03:20:36.955Z,23.83
2019-02-22T03:23:14.559Z,21.93
2019-02-22T03:25:50.234Z,21.93
2019-02-22T03:28:28.584Z,22.50
2019-02-22T03:31:06.313Z,23.13
2019-02-22T03:33:43.553Z,21.90
2019-02-22T03:36:19.480Z,21.90
2019-02-22T03:38:56.964Z,21.43
2019-02-22T03:41:32.745Z,21.07
2019-02-22T03:43:57.793Z,21.70
2019-02-22T03:46:35.448Z,22.03
2019-02-22T03:49:15.489Z,21.13
2019-02-22T03:51:45.062Z,21.70
2019-02-22T03:54:14.567Z,20.53
2019-02-22T03:56:56.085Z,20.87
2019-02-22T03:59:32.015Z,22.00
2019-02-22T04:02:01.518Z,22.93
2019-02-22T04:04:31.017Z,22.23
2019-02-22T04:07:00.594Z,21.67
2019-02-22T04:09:32.846Z,20.90
2019-02-22T04:12:09.614Z,21.07
2019-02-22T04:14:42.338Z,20.37
2019-02-22T04:17:14.954Z,18.97
2019-02-22T04:19:44.488Z,18.90
2019-02-22T04:22:13.970Z,20.17
2019-02-22T04:24:43.473Z,20.50
2019-02-22T04:27:13.667Z,19.30
2019-02-22T04:29:43.681Z,20.43
2019-02-22T04:32:37.000Z,19.80
2019-02-22T04:35:08.885Z,19.87
2019-02-22T04:37:45.016Z,19.33
2019-02-22T04:40:15.173Z,19.57
2019-02-22T04:42:45.589Z,19.60
2019-02-22T04:45:15.989Z,19.80
2019-02-22T04:47:48.580Z,20.17
2019-02-22T04:50:21.298Z,19.07
2019-02-22T04:52:52.946Z,19.83
2019-02-22T04:55:29.453Z,20.67
2019-02-22T04:57:59.871Z,20.27
2019-02-22T05:00:30.237Z,20.93
2019-02-22T05:02:59.788Z,20.97
2019-02-22T05:05:29.351Z,22.03
2019-02-22T05:07:58.853Z,21.90
2019-02-22T05:10:28.409Z,21.30
2019-02-22T05:12:59.153Z,20.93
2019-02-22T05:15:28.726Z,20.67
2019-02-22T05:17:58.369Z,21.03
2019-02-22T05:20:27.959Z,20.47
2019-02-22T05:23:03.779Z,19.77
2019-02-22T05:25:30.794Z,20.23
2019-02-22T05:28:00.290Z,20.33
2019-02-22T05:30:29.809Z,19.07
2019-02-22T05:32:59.265Z,19.50
2019-02-22T05:35:28.759Z,20.80
2019-02-22T05:37:58.313Z,19.93
2019-02-22T05:40:27.822Z,20.37
2019-02-22T05:42:57.295Z,20.27
2019-02-22T05:45:26.805Z,19.30
2019-02-22T05:47:56.271Z,18.60
2019-02-22T05:50:25.724Z,19.77
2019-02-22T05:52:55.221Z,19.53
2019-02-22T05:55:24.699Z,19.47
2019-02-22T05:57:54.186Z,19.57
2019-02-22T06:00:23.693Z,20.53
2019-02-22T06:02:53.176Z,19.47
2019-02-22T06:05:22.648Z,20.20
2019-02-22T06:07:52.172Z,20.10
2019-02-22T06:10:21.607Z,20.50
2019-02-22T06:12:51.105Z,22.27
2019-02-22T06:15:20.624Z,20.43
2019-02-22T06:17:50.122Z,19.70
2019-02-22T06:20:19.556Z,21.53
2019-02-22T06:22:49.063Z,20.97
2019-02-22T06:25:18.557Z,20.17
2019-02-22T06:27:48.112Z,21.23
2019-02-22T06:30:18.058Z,21.20
2019-02-22T06:32:47.529Z,20.90
2019-02-22T06:35:17.005Z,21.27
2019-02-22T06:37:46.498Z,20.13
2019-02-22T06:40:16.034Z,20.70
2019-02-22T06:42:46.282Z,22.33
2019-02-22T06:45:15.901Z,21.90
2019-02-22T06:47:45.453Z,20.97
2019-02-22T06:50:14.989Z,20.67
2019-02-22T06:52:44.517Z,22.00
2019-02-22T06:55:14.025Z,21.63
2019-02-22T06:57:43.567Z,21.97
2019-02-22T07:00:13.137Z,22.07
2019-02-22T07:02:42.639Z,21.70
2019-02-22T07:05:12.249Z,23.07
2019-02-22T07:07:41.790Z,22.37
2019-02-22T07:10:11.507Z,24.30
2019-02-22T07:12:56.774Z,23.77
2019-02-22T07:15:21.869Z,25.50
2019-02-22T07:17:51.362Z,26.60
2019-02-22T07:20:20.857Z,27.37
2019-02-22T07:22:50.351Z,25.83
2019-02-22T07:25:19.858Z,29.07
2019-02-22T07:27:49.370Z,27.47
2019-02-22T07:30:18.930Z,27.63
2019-02-22T07:32:48.423Z,29.23
2019-02-22T07:35:17.950Z,30.93
2019-02-22T07:37:47.504Z,30.43
2019-02-22T07:40:19.798Z,33.30
2019-02-22T07:42:48.288Z,36.90
2019-02-22T07:45:17.806Z,38.73
2019-02-22T07:47:47.305Z,37.90
2019-02-22T07:50:16.772Z,37.57
2019-02-22T07:52:46.285Z,37.80
2019-02-22T07:55:15.744Z,38.07
2019-02-22T07:57:45.236Z,34.70
2019-02-22T08:00:15.138Z,31.77
2019-02-22T08:02:44.621Z,30.07
2019-02-22T08:05:14.251Z,24.73
2019-02-22T08:07:43.753Z,23.37
2019-02-22T08:10:13.274Z,21.77
2019-02-22T08:12:42.796Z,20.07
2019-02-22T08:15:12.298Z,18.63
2019-02-22T08:17:41.829Z,18.00
2019-02-22T08:20:11.367Z,16.60
2019-02-22T08:22:40.865Z,17.70
2019-02-22T08:25:10.363Z,17.63
2019-02-22T08:27:41.726Z,17.00
2019-02-22T08:30:11.275Z,18.43
2019-02-22T08:32:40.843Z,18.90
2019-02-22T08:35:10.334Z,19.10
2019-02-22T08:37:39.817Z,19.40
2019-02-22T08:40:10.046Z,18.43
2019-02-22T08:42:39.611Z,17.77
2019-02-22T08:45:09.750Z,14.73
2019-02-22T08:47:39.464Z,16.20
2019-02-22T08:50:09.682Z,14.30
2019-02-22T08:52:39.113Z,14.30
2019-02-22T08:55:08.562Z,14.50
2019-02-22T08:57:38.012Z,13.87
2019-02-22T09:00:08.948Z,13.93
2019-02-22T09:02:38.551Z,13.73
2019-02-22T09:05:08.492Z,13.47
2019-02-22T09:07:37.959Z,13.53
2019-02-22T09:10:07.924Z,14.07
2019-02-22T09:12:37.464Z,14.30
2019-02-22T09:15:07.336Z,14.57
2019-02-22T09:17:36.849Z,14.67
2019-02-22T09:20:06.880Z,15.47
2019-02-22T09:22:36.369Z,15.37
2019-02-22T09:25:06.276Z,17.03
2019-02-22T09:27:35.843Z,16.23
2019-02-22T09:30:05.725Z,16.13
2019-02-22T09:32:35.227Z,16.13
2019-02-22T09:35:05.111Z,15.43
2019-02-22T09:37:34.601Z,13.53
2019-02-22T09:40:04.179Z,14.73
2019-02-22T09:42:33.690Z,14.83
2019-02-22T09:45:03.221Z,15.10
2019-02-22T09:47:32.698Z,14.70
2019-02-22T09:50:02.212Z,15.97
2019-02-22T09:52:31.723Z,13.50
2019-02-22T09:55:01.317Z,10.50
2019-02-22T09:57:30.796Z,9.70
2019-02-22T10:00:00.400Z,11.03
2019-02-22T10:02:29.911Z,10.87
2019-02-22T10:04:59.419Z,11.43
2019-02-22T10:07:28.926Z,11.47
2019-02-22T10:09:58.445Z,12.27
2019-02-22T10:12:27.962Z,10.97
2019-02-22T10:14:57.448Z,11.73
2019-02-22T10:17:26.962Z,13.30
2019-02-22T10:19:56.451Z,13.83
2019-02-22T10:22:25.960Z,12.20
2019-02-22T10:24:55.469Z,12.83
2019-02-22T10:27:24.969Z,14.30
2019-02-22T10:29:54.468Z,14.33
2019-02-22T10:32:23.950Z,14.23
2019-02-22T10:34:53.455Z,15.57
2019-02-22T10:37:22.962Z,13.57
2019-02-22T10:39:52.464Z,12.93
2019-02-22T10:42:21.996Z,13.53
2019-02-22T10:44:51.455Z,13.00
2019-02-22T10:47:20.949Z,8.60
2019-02-22T10:49:50.471Z,8.17
2019-02-22T10:52:20.033Z,10.40
2019-02-22T10:54:49.505Z,11.00
2019-02-22T10:57:18.994Z,9.97
2019-02-22T10:59:48.592Z,11.93
2019-02-22T11:02:18.065Z,12.10
2019-02-22T11:04:47.600Z,12.93
2019-02-22T11:07:17.110Z,13.37
2019-02-22T11:09:46.776Z,9.87
2019-02-22T11:12:16.273Z,10.33
2019-02-22T11:14:45.752Z,8.53
2019-02-22T11:17:15.276Z,6.77
2019-02-22T11:19:44.803Z,6.40
2019-02-22T11:22:14.349Z,5.73
2019-02-22T11:24:43.820Z,8.13
2019-02-22T11:27:13.301Z,9.07
2019-02-22T11:29:42.754Z,7.30
2019-02-22T11:32:12.248Z,7.70
2019-02-22T11:34:42.487Z,10.03
2019-02-22T11:37:15.213Z,10.97
2019-02-22T11:39:44.739Z,11.40
2019-02-22T11:42:14.279Z,11.50
2019-02-22T11:44:43.749Z,11.70
2019-02-22T11:47:13.235Z,11.63
2019-02-22T11:49:42.743Z,16.37
2019-02-22T11:52:12.316Z,13.00
2019-02-22T11:54:41.819Z,11.17
2019-02-22T11:57:11.784Z,9.53
2019-02-22T11:59:41.269Z,9.93
2019-02-22T12:02:10.763Z,9.00
2019-02-22T12:04:40.262Z,9.27
2019-02-22T12:07:09.778Z,8.57
2019-02-22T12:09:39.265Z,8.67
2019-02-22T12:12:08.754Z,9.00
2019-02-22T12:14:38.230Z,7.00
2019-02-22T12:17:07.711Z,7.53
2019-02-22T12:19:37.202Z,6.87
2019-02-22T12:22:06.741Z,7.43
2019-02-22T12:24:36.267Z,5.70
2019-02-22T12:27:05.750Z,5.07
2019-02-22T12:29:35.236Z,4.90
2019-02-22T12:32:04.699Z,6.00
2019-02-22T12:34:34.219Z,6.03
2019-02-22T12:37:03.689Z,5.80
2019-02-22T12:39:33.224Z,6.33
2019-02-22T12:42:02.737Z,6.57
2019-02-22T12:44:32.246Z,6.43
2019-02-22T12:47:01.748Z,6.23
2019-02-22T12:49:31.256Z,6.20
2019-02-22T12:52:00.751Z,6.83
2019-02-22T12:54:30.205Z,7.80
2019-02-22T12:56:59.688Z,7.93
2019-02-22T12:59:29.139Z,5.50
2019-02-22T13:01:58.644Z,4.80
2019-02-22T13:04:28.177Z,4.03
2019-02-22T13:06:57.640Z,4.70
2019-02-22T13:09:36.191Z,4.67
2019-02-22T13:11:58.304Z,4.63
2019-02-22T13:14:27.828Z,7.60
2019-02-22T13:16:57.330Z,7.40
2019-02-22T13:19:26.863Z,7.20
2019-02-22T13:21:56.368Z,7.70
2019-02-22T13:24:25.876Z,9.60
2019-02-22T13:26:55.695Z,11.43
2019-02-22T13:29:25.220Z,11.00
2019-02-22T13:31:54.709Z,11.43
2019-02-22T13:34:24.230Z,12.50
2019-02-22T13:36:53.732Z,14.47
2019-02-22T13:39:23.217Z,14.30
2019-02-22T13:41:52.731Z,15.87
2019-02-22T13:44:23.398Z,16.90
2019-02-22T13:46:53.044Z,17.87
2019-02-22T13:49:22.547Z,15.50
2019-02-22T13:51:52.071Z,16.50
2019-02-22T13:54:21.533Z,16.30
2019-02-22T13:56:51.071Z,15.47
2019-02-22T13:59:20.599Z,16.33
2019-02-22T14:01:50.111Z,14.83
2019-02-22T14:04:19.622Z,14.30
2019-02-22T14:06:49.095Z,14.30
2019-02-22T14:09:18.566Z,14.80
2019-02-22T14:11:48.089Z,16.23
2019-02-22T14:14:17.546Z,16.33
2019-02-22T14:16:47.088Z,17.50
2019-02-22T14:19:16.586Z,18.33
2019-02-22T14:21:46.070Z,19.67
2019-02-22T14:24:15.578Z,20.17
2019-02-22T14:26:45.124Z,18.80
2019-02-22T14:29:14.679Z,20.00
2019-02-22T14:31:44.131Z,20.23
2019-02-22T14:34:13.696Z,13.07
2019-02-22T14:36:43.175Z,7.67
2019-02-22T14:39:12.827Z,5.70
2019-02-22T14:41:42.230Z,4.57
2019-02-22T14:44:11.721Z,4.77
2019-02-22T14:46:41.259Z,4.53
2019-02-22T14:49:10.802Z,5.13
2019-02-22T14:51:40.295Z,4.30
2019-02-22T14:54:09.759Z,5.43
2019-02-22T14:56:39.224Z,5.70
2019-02-22T14:59:08.716Z,9.33
2019-02-22T15:01:38.249Z,13.20
2019-02-22T15:04:07.777Z,11.93
2019-02-22T15:06:37.297Z,11.37
2019-02-22T15:09:08.419Z,10.77
2019-02-22T15:11:37.893Z,11.60
2019-02-22T15:14:07.464Z,11.50
2019-02-22T15:16:52.745Z,10.83
2019-02-22T15:19:22.380Z,10.37
2019-02-22T15:21:51.932Z,11.93
2019-02-22T15:24:21.455Z,11.10
2019-02-22T15:26:50.954Z,11.97
2019-02-22T15:29:20.499Z,11.20
2019-02-22T15:31:50.011Z,12.47
2019-02-22T15:34:19.514Z,12.30
2019-02-22T15:36:49.001Z,13.47
2019-02-22T15:39:18.470Z,12.50
2019-02-22T15:41:47.966Z,13.67
2019-02-22T15:44:17.593Z,12.83
2019-02-22T15:46:47.092Z,13.43
2019-02-22T15:49:16.580Z,11.63
2019-02-22T15:51:46.079Z,12.83
2019-02-22T15:54:15.569Z,11.40
2019-02-22T15:56:45.081Z,13.23
2019-02-22T15:59:14.598Z,12.77
2019-02-22T16:01:54.514Z,13.50
2019-02-22T16:04:40.373Z,13.57
2019-02-22T16:07:09.913Z,14.77
2019-02-22T16:09:39.390Z,17.37
2019-02-22T16:12:08.977Z,18.27
2019-02-22T16:14:38.457Z,15.73
2019-02-22T16:17:07.979Z,14.20
2019-02-22T16:19:37.481Z,18.03
2019-02-22T16:22:06.998Z,16.20
2019-02-22T16:24:36.477Z,16.87
2019-02-22T16:27:05.992Z,16.77
2019-02-22T16:29:35.479Z,18.67
2019-02-22T16:32:09.480Z,15.17
2019-02-22T16:34:43.417Z,15.53
2019-02-22T16:37:10.233Z,12.57
2019-02-22T16:39:39.721Z,12.97
2019-02-22T16:42:09.222Z,10.47
2019-02-22T16:44:38.821Z,11.23
2019-02-22T16:47:08.319Z,10.50
2019-02-22T16:49:37.871Z,11.23
2019-02-22T16:52:07.357Z,9.60
2019-02-22T16:54:36.859Z,10.17
2019-02-22T16:57:06.382Z,11.30
2019-02-22T16:59:35.915Z,9.27
2019-02-22T17:02:05.416Z,8.63
2019-02-22T17:04:34.896Z,9.50
2019-02-22T17:07:04.464Z,9.83
2019-02-22T17:09:33.946Z,7.23
2019-02-22T17:12:06.380Z,6.20
2019-02-22T17:14:34.774Z,4.53
2019-02-22T17:17:04.329Z,5.60
2019-02-22T17:19:33.823Z,7.33
2019-02-22T17:22:03.317Z,7.30
2019-02-22T17:24:32.825Z,6.83
2019-02-22T17:27:02.331Z,7.20
2019-02-22T17:29:31.805Z,9.10
2019-02-22T17:32:01.310Z,9.47
2019-02-22T17:34:30.786Z,9.77
2019-02-22T17:37:00.279Z,11.37
2019-02-22T17:39:29.801Z,12.33
2019-02-22T17:41:59.315Z,10.33
2019-02-22T17:44:28.811Z,9.47
2019-02-22T17:46:58.293Z,9.87
2019-02-22T17:49:27.807Z,11.60
2019-02-22T17:51:57.315Z,11.27
2019-02-22T17:54:26.922Z,11.50
2019-02-22T17:56:56.395Z,11.80
2019-02-22T17:59:25.930Z,13.13
2019-02-22T18:01:55.428Z,12.43
2019-02-22T18:04:24.945Z,13.07
2019-02-22T18:06:54.422Z,11.70
2019-02-22T18:09:23.958Z,12.13
2019-02-22T18:11:53.482Z,12.77
2019-02-22T18:14:22.964Z,11.23
2019-02-22T18:16:52.442Z,11.73
2019-02-22T18:19:21.925Z,11.97
2019-02-22T18:21:51.452Z,11.00
2019-02-22T18:24:20.957Z,11.47
2019-02-22T18:26:50.542Z,11.77
2019-02-22T18:29:20.097Z,12.53
2019-02-22T18:31:49.585Z,12.23
2019-02-22T18:34:19.094Z,15.03
2019-02-22T18:36:48.568Z,13.33
2019-02-22T18:39:18.075Z,13.73
2019-02-22T18:41:47.565Z,13.10
2019-02-22T18:44:17.283Z,13.93
2019-02-22T18:46:46.770Z,14.07
2019-02-22T18:49:16.266Z,14.30
2019-02-22T18:51:45.804Z,13.53
2019-02-22T18:54:15.394Z,13.50
2019-02-22T18:56:44.983Z,12.83
2019-02-22T18:59:14.625Z,12.97
2019-02-22T19:01:44.162Z,13.63
2019-02-22T19:04:13.669Z,12.17
2019-02-22T19:06:43.256Z,12.23
2019-02-22T19:09:12.758Z,13.20
2019-02-22T19:11:42.345Z,12.47
2019-02-22T19:14:11.889Z,13.93
2019-02-22T19:16:41.385Z,12.67
2019-02-22T19:19:10.918Z,13.23
2019-02-22T19:21:42.211Z,15.80
2019-02-22T19:24:11.760Z,16.10
2019-02-22T19:26:41.292Z,16.77
2019-02-22T19:29:10.815Z,17.87
2019-02-22T19:31:40.319Z,17.67
2019-02-22T19:34:09.825Z,18.03
2019-02-22T19:36:39.413Z,19.43
2019-02-22T19:39:08.846Z,19.97
2019-02-22T19:41:38.323Z,19.77
2019-02-22T19:44:07.770Z,19.97
2019-02-22T19:46:37.269Z,20.20
2019-02-22T19:49:06.808Z,17.90
2019-02-22T19:51:36.344Z,17.93
2019-02-22T19:54:05.894Z,16.53
2019-02-22T19:56:35.398Z,16.47
2019-02-22T19:59:04.930Z,16.67
2019-02-22T20:01:34.514Z,15.33
2019-02-22T20:04:04.389Z,16.10
2019-02-22T20:06:33.907Z,15.40
2019-02-22T20:09:04.822Z,16.23
2019-02-22T20:11:34.319Z,14.90
2019-02-22T20:14:03.927Z,14.13
2019-02-22T20:16:33.459Z,14.70
2019-02-22T20:19:02.962Z,14.20
2019-02-22T20:21:32.493Z,14.33
2019-02-22T20:24:01.959Z,14.57
2019-02-22T20:26:31.481Z,13.87
2019-02-22T20:29:00.980Z,13.50
2019-02-22T20:31:30.671Z,13.37
2019-02-22T20:34:00.189Z,12.53
2019-02-22T20:36:29.710Z,11.47
2019-02-22T20:38:59.183Z,11.90
2019-02-22T20:41:28.669Z,10.77
2019-02-22T20:43:58.153Z,12.10
2019-02-22T20:46:28.205Z,11.93
2019-02-22T20:49:00.733Z,11.57
2019-02-22T20:51:28.965Z,11.60
2019-02-22T20:53:58.498Z,10.40
2019-02-22T20:56:28.005Z,10.10
2019-02-22T20:58:57.504Z,9.37
2019-02-22T21:01:26.989Z,9.10
2019-02-22T21:03:56.485Z,9.67
2019-02-22T21:06:25.993Z,9.70
2019-02-22T21:08:55.526Z,9.40
2019-02-22T21:11:25.087Z,8.40
2019-02-22T21:13:54.589Z,9.30
2019-02-22T21:16:24.079Z,8.70
2019-02-22T21:18:53.589Z,9.30
2019-02-22T21:21:23.075Z,9.30
2019-02-22T21:23:52.599Z,9.70
2019-02-22T21:26:22.100Z,9.20
2019-02-22T21:28:51.563Z,9.03
2019-02-22T21:31:21.142Z,10.67
2019-02-22T21:33:50.699Z,10.27
2019-02-22T21:36:20.209Z,10.73
2019-02-22T21:38:49.730Z,11.07
2019-02-22T21:41:19.262Z,12.53
2019-02-22T21:43:48.749Z,11.83
2019-02-22T21:46:18.229Z,11.37
2019-02-22T21:48:47.763Z,9.53
2019-02-22T21:51:17.285Z,10.57
2019-02-22T21:53:47.109Z,10.60
2019-02-22T21:56:16.713Z,8.70
2019-02-22T21:58:48.717Z,7.73
2019-02-22T22:01:17.489Z,8.57
2019-02-22T22:03:46.973Z,8.60
2019-02-22T22:06:16.461Z,8.47
2019-02-22T22:08:45.944Z,8.67
2019-02-22T22:11:15.429Z,8.50
2019-02-22T22:13:44.894Z,8.90
2019-02-22T22:16:14.373Z,7.40
2019-02-22T22:18:43.860Z,8.57
2019-02-22T22:21:13.320Z,8.57
2019-02-22T22:23:42.815Z,7.70
2019-02-22T22:26:12.284Z,8.83
2019-02-22T22:28:41.732Z,7.90
2019-02-22T22:31:11.201Z,9.70
2019-02-22T22:33:40.687Z,13.23
2019-02-22T22:36:10.201Z,14.90
2019-02-22T22:38:39.674Z,6.40
2019-02-22T22:41:09.202Z,5.07
2019-02-22T22:43:38.675Z,1.70
2019-02-22T22:46:08.177Z,1.63
2019-02-22T22:48:37.677Z,1.90
2019-02-22T22:51:07.185Z,1.40
2019-02-22T22:53:36.677Z,1.40
2019-02-22T22:56:06.181Z,1.60
2019-02-22T22:58:35.648Z,1.53
2019-02-22T23:01:14.913Z,1.40
2019-02-22T23:03:44.374Z,1.27
2019-02-22T23:06:14.967Z,1.37
2019-02-22T23:08:44.473Z,1.60
2019-02-22T23:11:13.966Z,1.87
2019-02-22T23:13:43.440Z,1.70
2019-02-22T23:16:12.909Z,1.77
2019-02-22T23:18:42.403Z,1.90
2019-02-22T23:21:11.917Z,1.67
2019-02-22T23:23:41.408Z,1.80
2019-02-22T23:26:10.865Z,2.43
2019-02-22T23:28:40.369Z,4.20
2019-02-22T23:31:09.837Z,3.70
2019-02-22T23:33:39.327Z,2.93
2019-02-22T23:36:08.797Z,1.00
2019-02-22T23:38:38.286Z,1.10
2019-02-22T23:41:07.792Z,1.07
2019-02-22T23:43:37.293Z,1.10
2019-02-22T23:46:06.801Z,1.20
2019-02-22T23:48:36.342Z,1.13
2019-02-22T23:51:05.837Z,1.20
2019-02-22T23:53:35.306Z,1.17
2019-02-22T23:56:04.791Z,0.87
2019-02-22T23:58:34.265Z,1.23
